KHQM/HQM METAR and TAF weather

Enter ICAO airport designator
Station Type Date Time Source
KHQM METAR 2022/12/10 01:53 UTC NOAA

KHQM 100153Z AUTO 08015G25KT 5SM -RA BR OVC022 06/03 A2940 RMK AO2 PK WND 08029/0133 SLP958 P0003 T00560033


Station Type Date Time Source
KHQM Decoded METAR 2022/12/10 01:53 UTC NOAA

HOQUIAM BOWERMAN AIRPORT, WA, United States (KHQM) 46-58N 123-56W 7M
Dec 09, 2022 - 08:53 PM EST / 2022.12.10 0153 UTC
Wind: from the E (080 degrees) at 17 MPH (15 KT) gusting to 29 MPH (25 KT):0
Visibility: 5 mile(s):0
Sky conditions: overcast
Weather: light rain; mist
Precipitation last hour: 0.03 inches
Temperature: 42.1 F (5.6 C)
Dew Point: 37.9 F (3.3 C)
Relative Humidity: 85%
Pressure (altimeter): 29.4 in. Hg (995 hPa)
ob: KHQM 100153Z AUTO 08015G25KT 5SM -RA BR OVC022 06/03 A2940 RMK AO2 PK WND 08029/0133 SLP958 P0003 T00560033
cycle: 2

Station Type Date Time Source
KHQM TAF 2022/12/09 18:33 UTC NOAA

TAF KHQM 091731Z 0918/1018 10011KT P6SM VCSH SCT025 OVC040
FM092100 09014G22KT 5SM -RA BR OVC020
FM100000 11027G40KT 4SM -RA BR OVC015
FM101100 13022G34KT 4SM -RA OVC018

Example: see airport list